Thunder Bay Airport
CYQT : now visible

Airfield :











YOU CAN JOIN US ON...

 
LOGIN :

Register | Disclaimer

   EN    FR    IT 

 









Legend :    VFR   Marginal VFR   IFR   Intensive IFR   Very Intensive IFR
Visi :
Ceiling :
>= 8 km
>= 3000ft
5 to 8 km
1000 to 3000 ft
1500m to 5 km
500 to 1000 ft
800 to 1500m
200 to 500 ft
< 800m
< 200 ft
Symbols :   Thunderstorms  Fog  Heavy snow  Heavy precipitations  Wind > 20 kt







- Airport Elevation : 653 ft
- IATA code : YQT


CYQT - Thunder Bay

CURRENT METAR :
  • 210400Z 00000KT 15SM OVC085 06/04 A2981 RMK AC8 SLP101

EXPIRED METARs :
  • 210300Z 04004KT 15SM OVC085 07/04 A2979 RMK AC8 SLP097
  • 210200Z VRB02KT 15SM OVC085 07/05 A2979 RMK AC8 SLP095

TAF TAF CYQT
Valid from the 21 at 02:00 until the 21 at 14:00 UTC


210138Z 2102/2114 VRB03KT P6SM -SHRA OVC070
TEMPO 2102/2104 5SM -SHRA BR OVC020
FM210400 VRB03KT P6SM BKN060
FM210600 VRB03KT P6SM FEW060
FM211300 09010KT 6SM BR SCT005
PROB30 2113/2114 11/2SM BR BKN005 RMK NXT FCST BY 210800Z
CZWG FIR / North America



MET'MAP, your aeronautical weather chart ! - Copyright ORBIFLY December 2007 - Disclaimer

ORBIFLY MET'MAP TEAM :

Programming & Development : Alexandra Zaïnal
Concept & Development : Baudouin d'Aumeries
Co-Development & Prog : Marc-Olivier Méhu
Technical & hardware support : Manuel Goepfert

Contact : metmap@orbifly.com




SOURCES & CREDITS :

   NOAA       Earth
Advisory